KTNU/TNU METAR and TAF weather

Enter ICAO airport designator
Station Type Date Time Source
KTNU METAR 2022/06/26 08:15 UTC NOAA

KTNU 260815Z AUTO 33010KT 10SM CLR 18/13 A3013 RMK A01


Station Type Date Time Source
KTNU Decoded METAR 2022/06/26 08:15 UTC NOAA

Newton Municipal, IA, United States (KTNU) 41-41N 093-01W
Jun 26, 2022 - 04:15 AM EDT / 2022.06.26 0815 UTC
Wind: from the NNW (330 degrees) at 12 MPH (10 KT):0
Visibility: 10 mile(s):0
Sky conditions: clear
Temperature: 64 F (18 C)
Dew Point: 55 F (13 C)
Relative Humidity: 72%
Pressure (altimeter): 30.13 in. Hg (1020 hPa)
ob: KTNU 260815Z AUTO 33010KT 10SM CLR 18/13 A3013 RMK A01
cycle: 8

Station Type Date Time Source
KTNU TAF UTC NOAA

Error!

Example: see airport list